Weather at Mount Gambier Airport

Public forecast

Using degrees Celsius for public forecast. Weather courtesy of forecast.io.

Current aviation weather report (METAR) for Mount Gambier Airport

Retrieved 2021/01/16 19:00 UTC (44 minutes ago):

YMTG 161900Z AUTO 29005KT 9999 // OVC035 08/08 Q1019

Closest aviation forecast (TAF) to Mount Gambier Airport

Closest forecast is Avalon Airport, 175.4 nm (324.9 km) E. Retrieved 2021/01/16 18:00 UTC (2 hours ago):

TAF YMAV 161727Z 1618/1718 25012KT 9999 BKN040 FM162200 23012KT 9999 SCT040 FM170300 18014KT 9999 SCT040 FM170900 25010KT CAVOK FM171400 27010KT 9999 SCT012 BKN020